NLSK1: Solomon River, Niles, KS

                                SHEF ID:       NLSK1     SOLOMON R AT NILES, KS
STATION TYPE:

PRECIP STAGE RIV-FLOW BAT-LOAD
in ft cfs volt
Ccp-Rev Ccp-Rev Ccp-Rev Ccp-Rev
(America/Chicago)
07/24 00:00 0.00 5.42 219 11.66
07/24 01:00 0.01 6.19 318 11.64
07/24 02:00 0.01 6.67 388 11.65
07/24 03:00 0.00 7.17 466 11.62
07/24 04:00 0.01 8.19 645 11.63
07/24 05:00 0.01 9.37 882 11.61
07/24 06:00 0.01 10.37 1108 11.59
07/24 07:00 0.01 11.26 1327 11.61
07/24 08:00 0.01 12.05 1536 11.61
07/24 09:00 0.01 12.72 1723 11.64
07/24 10:00 0.00 13.29 1889 11.85
07/24 11:00 0.01 13.73 2022 11.99
07/24 12:00 0.00 14.07 2127 12.37
07/24 13:00 0.00 14.34 2212 12.37
07/24 14:00 0.00 14.55 2280 12.53
07/24 15:00 0.01 14.75 2345 12.69
07/24 16:00 0.00 14.95 2410 12.59
07/24 17:00 0.00 15.13 2470 12.34
07/24 18:00 0.00 15.33 2537 12.36
07/24 19:00 0.00 15.51 2598 12.06
07/24 20:00 0.01 15.71 2667 11.94
07/24 21:00 0.00 15.89 2729 11.88
07/24 22:00 0.00 16.07 2792 11.88
07/24 23:00 0.00 16.23 2849 11.85
Data processed at Sat 25Jul2026 04:41 GMT

NOTICE: If you are parsing this page

Please convert to using our Data API. Starting early 2026 we will be migrating to: https://water.usace.army.mil with modern pages rendered in JavaScript. When this migration completes you will no longer be able to scrape this page! CWMSDataAPI (CDA)

Timeseries IDs (TSIDs)

TSIDs used from left to right in the data table
NLSK.Precip-Inc.Total.1Hour.1Hour.Ccp-Rev
NLSK.Stage.Inst.1Hour.0.Ccp-Rev
NLSK.Flow.Inst.1Hour.0.Ccp-Rev
NLSK.Volt-Battery Load.Inst.1Hour.0.Ccp-Rev

                            

All information presented herein is the property of the government of the United States of America and may be revised or deleted at any time without prior notice. Dissemination of this information without the expressed written consent of the Public Affairs Office, Tulsa District U.S. Army Corps of Engineers is strictly prohibited. These data are gathered electronically and, as presented, have NOT undergone any form of quality control. These data are NOT guaranteed to be valid or correct.